sensor_id;sensor_type;location;lat;lon;timestamp;P1;durP1;ratioP1;P2;durP2;ratioP2
7791;SDS011;3940;49.892;10.886;2022-07-29T00:02:00;4.80;;;4.40;;
7791;SDS011;3940;49.892;10.886;2022-07-29T00:04:46;8.53;;;4.33;;
7791;SDS011;3940;49.892;10.886;2022-07-29T00:07:31;4.63;;;3.80;;
7791;SDS011;3940;49.892;10.886;2022-07-29T00:10:17;5.63;;;3.90;;
7791;SDS011;3940;49.892;10.886;2022-07-29T00:13:03;6.30;;;5.37;;
7791;SDS011;3940;49.892;10.886;2022-07-29T00:15:48;6.93;;;3.77;;
7791;SDS011;3940;49.892;10.886;2022-07-29T00:18:32;4.57;;;4.13;;
7791;SDS011;3940;49.892;10.886;2022-07-29T00:21:16;7.50;;;4.10;;
7791;SDS011;3940;49.892;10.886;2022-07-29T00:24:01;5.33;;;4.03;;
7791;SDS011;3940;49.892;10.886;2022-07-29T00:26:47;8.13;;;4.10;;
7791;SDS011;3940;49.892;10.886;2022-07-29T00:29:31;4.30;;;3.10;;
7791;SDS011;3940;49.892;10.886;2022-07-29T00:32:17;5.23;;;3.97;;
7791;SDS011;3940;49.892;10.886;2022-07-29T00:35:03;5.53;;;3.23;;
7791;SDS011;3940;49.892;10.886;2022-07-29T00:38:11;4.40;;;4.00;;
7791;SDS011;3940;49.892;10.886;2022-07-29T00:41:18;4.73;;;3.73;;
7791;SDS011;3940;49.892;10.886;2022-07-29T00:44:05;7.53;;;3.70;;
7791;SDS011;3940;49.892;10.886;2022-07-29T00:46:54;5.50;;;3.43;;
7791;SDS011;3940;49.892;10.886;2022-07-29T00:49:39;5.70;;;4.30;;
7791;SDS011;3940;49.892;10.886;2022-07-29T00:52:31;4.37;;;3.57;;
7791;SDS011;3940;49.892;10.886;2022-07-29T00:55:20;5.27;;;3.90;;
7791;SDS011;3940;49.892;10.886;2022-07-29T00:58:27;7.33;;;4.60;;
7791;SDS011;3940;49.892;10.886;2022-07-29T01:01:13;19.33;;;5.10;;
7791;SDS011;3940;49.892;10.886;2022-07-29T01:04:05;3.53;;;3.20;;
7791;SDS011;3940;49.892;10.886;2022-07-29T01:06:54;5.57;;;2.90;;
7791;SDS011;3940;49.892;10.886;2022-07-29T01:10:03;7.50;;;3.70;;
7791;SDS011;3940;49.892;10.886;2022-07-29T01:12:52;4.60;;;3.63;;
7791;SDS011;3940;49.892;10.886;2022-07-29T01:15:45;3.97;;;3.60;;
7791;SDS011;3940;49.892;10.886;2022-07-29T01:18:39;3.57;;;3.23;;
7791;SDS011;3940;49.892;10.886;2022-07-29T01:21:50;7.27;;;4.57;;
7791;SDS011;3940;49.892;10.886;2022-07-29T01:24:45;5.07;;;3.57;;
7791;SDS011;3940;49.892;10.886;2022-07-29T01:28:08;5.70;;;3.63;;
7791;SDS011;3940;49.892;10.886;2022-07-29T01:31:10;7.37;;;4.70;;
7791;SDS011;3940;49.892;10.886;2022-07-29T01:34:03;4.40;;;4.00;;
7791;SDS011;3940;49.892;10.886;2022-07-29T01:37:04;8.43;;;4.13;;
7791;SDS011;3940;49.892;10.886;2022-07-29T01:40:22;6.50;;;4.37;;
7791;SDS011;3940;49.892;10.886;2022-07-29T01:43:14;4.60;;;3.70;;
7791;SDS011;3940;49.892;10.886;2022-07-29T01:46:04;6.20;;;3.60;;
7791;SDS011;3940;49.892;10.886;2022-07-29T01:48:57;5.50;;;3.80;;
7791;SDS011;3940;49.892;10.886;2022-07-29T01:52:05;5.50;;;4.60;;
7791;SDS011;3940;49.892;10.886;2022-07-29T01:54:58;5.17;;;3.90;;
7791;SDS011;3940;49.892;10.886;2022-07-29T01:58:05;4.03;;;3.70;;
7791;SDS011;3940;49.892;10.886;2022-07-29T02:00:52;3.97;;;3.50;;
7791;SDS011;3940;49.892;10.886;2022-07-29T02:03:41;3.70;;;3.40;;
7791;SDS011;3940;49.892;10.886;2022-07-29T02:06:30;4.47;;;3.60;;
7791;SDS011;3940;49.892;10.886;2022-07-29T02:09:25;4.03;;;3.60;;
7791;SDS011;3940;49.892;10.886;2022-07-29T02:12:13;3.60;;;3.30;;
7791;SDS011;3940;49.892;10.886;2022-07-29T02:15:03;3.23;;;2.87;;
7791;SDS011;3940;49.892;10.886;2022-07-29T02:17:58;6.80;;;3.37;;
7791;SDS011;3940;49.892;10.886;2022-07-29T02:21:05;3.20;;;2.90;;
7791;SDS011;3940;49.892;10.886;2022-07-29T02:23:51;7.30;;;3.70;;
7791;SDS011;3940;49.892;10.886;2022-07-29T02:26:43;3.10;;;2.80;;
7791;SDS011;3940;49.892;10.886;2022-07-29T02:29:32;10.67;;;3.43;;
7791;SDS011;3940;49.892;10.886;2022-07-29T02:32:41;6.93;;;4.30;;
7791;SDS011;3940;49.892;10.886;2022-07-29T02:35:29;8.80;;;3.50;;
7791;SDS011;3940;49.892;10.886;2022-07-29T02:38:15;7.30;;;3.73;;
7791;SDS011;3940;49.892;10.886;2022-07-29T02:41:15;4.47;;;3.77;;
7791;SDS011;3940;49.892;10.886;2022-07-29T02:44:11;6.07;;;3.47;;
7791;SDS011;3940;49.892;10.886;2022-07-29T02:47:05;6.17;;;3.23;;
7791;SDS011;3940;49.892;10.886;2022-07-29T02:50:14;4.77;;;3.57;;
7791;SDS011;3940;49.892;10.886;2022-07-29T02:53:23;4.03;;;3.20;;
7791;SDS011;3940;49.892;10.886;2022-07-29T02:56:13;3.57;;;3.03;;
7791;SDS011;3940;49.892;10.886;2022-07-29T02:59:07;4.00;;;3.43;;
7791;SDS011;3940;49.892;10.886;2022-07-29T03:02:16;10.63;;;3.30;;
7791;SDS011;3940;49.892;10.886;2022-07-29T03:05:01;4.03;;;3.60;;
7791;SDS011;3940;49.892;10.886;2022-07-29T03:07:52;4.43;;;4.03;;
7791;SDS011;3940;49.892;10.886;2022-07-29T03:10:43;4.57;;;3.13;;
7791;SDS011;3940;49.892;10.886;2022-07-29T03:13:31;6.77;;;3.77;;
7791;SDS011;3940;49.892;10.886;2022-07-29T03:16:19;3.00;;;2.70;;
7791;SDS011;3940;49.892;10.886;2022-07-29T03:19:04;4.20;;;3.80;;
7791;SDS011;3940;49.892;10.886;2022-07-29T03:21:55;6.80;;;4.10;;
7791;SDS011;3940;49.892;10.886;2022-07-29T03:24:45;3.77;;;3.40;;
7791;SDS011;3940;49.892;10.886;2022-07-29T03:27:36;3.77;;;2.50;;
7791;SDS011;3940;49.892;10.886;2022-07-29T03:30:22;8.07;;;3.40;;
7791;SDS011;3940;49.892;10.886;2022-07-29T03:33:07;3.17;;;2.87;;
7791;SDS011;3940;49.892;10.886;2022-07-29T03:35:51;4.13;;;3.17;;
7791;SDS011;3940;49.892;10.886;2022-07-29T03:38:40;4.60;;;3.30;;
7791;SDS011;3940;49.892;10.886;2022-07-29T03:41:28;5.03;;;3.03;;
7791;SDS011;3940;49.892;10.886;2022-07-29T03:44:16;5.27;;;3.73;;
7791;SDS011;3940;49.892;10.886;2022-07-29T03:47:26;5.13;;;3.40;;
7791;SDS011;3940;49.892;10.886;2022-07-29T03:50:14;9.60;;;3.83;;
7791;SDS011;3940;49.892;10.886;2022-07-29T03:52:59;5.53;;;3.23;;
7791;SDS011;3940;49.892;10.886;2022-07-29T03:56:06;5.57;;;3.10;;
7791;SDS011;3940;49.892;10.886;2022-07-29T03:58:56;5.43;;;3.73;;
7791;SDS011;3940;49.892;10.886;2022-07-29T04:01:41;3.60;;;3.20;;
7791;SDS011;3940;49.892;10.886;2022-07-29T04:04:27;4.17;;;3.73;;
7791;SDS011;3940;49.892;10.886;2022-07-29T04:07:12;6.13;;;4.07;;
7791;SDS011;3940;49.892;10.886;2022-07-29T04:09:59;4.57;;;3.53;;
7791;SDS011;3940;49.892;10.886;2022-07-29T04:12:46;3.77;;;3.43;;
7791;SDS011;3940;49.892;10.886;2022-07-29T04:15:32;4.00;;;3.63;;
7791;SDS011;3940;49.892;10.886;2022-07-29T04:18:19;5.90;;;3.70;;
7791;SDS011;3940;49.892;10.886;2022-07-29T04:21:13;4.10;;;3.70;;
7791;SDS011;3940;49.892;10.886;2022-07-29T04:23:58;4.73;;;3.30;;
7791;SDS011;3940;49.892;10.886;2022-07-29T04:26:45;4.57;;;4.03;;
7791;SDS011;3940;49.892;10.886;2022-07-29T04:29:30;5.00;;;3.10;;
7791;SDS011;3940;49.892;10.886;2022-07-29T04:32:15;5.00;;;3.47;;
7791;SDS011;3940;49.892;10.886;2022-07-29T04:35:03;7.37;;;4.13;;
7791;SDS011;3940;49.892;10.886;2022-07-29T04:37:48;4.73;;;3.40;;
7791;SDS011;3940;49.892;10.886;2022-07-29T04:40:36;5.70;;;3.80;;
7791;SDS011;3940;49.892;10.886;2022-07-29T04:43:23;12.33;;;4.10;;
7791;SDS011;3940;49.892;10.886;2022-07-29T04:46:11;6.63;;;3.10;;
7791;SDS011;3940;49.892;10.886;2022-07-29T04:49:14;7.50;;;4.20;;
7791;SDS011;3940;49.892;10.886;2022-07-29T04:52:01;4.80;;;3.83;;
7791;SDS011;3940;49.892;10.886;2022-07-29T04:54:48;4.37;;;3.30;;
7791;SDS011;3940;49.892;10.886;2022-07-29T04:57:33;6.10;;;3.47;;
7791;SDS011;3940;49.892;10.886;2022-07-29T05:00:17;6.60;;;3.37;;
7791;SDS011;3940;49.892;10.886;2022-07-29T05:03:08;5.97;;;3.00;;
7791;SDS011;3940;49.892;10.886;2022-07-29T05:05:56;7.67;;;4.97;;
7791;SDS011;3940;49.892;10.886;2022-07-29T05:08:42;3.57;;;2.77;;
7791;SDS011;3940;49.892;10.886;2022-07-29T05:11:29;6.90;;;3.67;;
7791;SDS011;3940;49.892;10.886;2022-07-29T05:14:15;3.93;;;3.10;;
7791;SDS011;3940;49.892;10.886;2022-07-29T05:17:01;3.47;;;3.17;;
7791;SDS011;3940;49.892;10.886;2022-07-29T05:19:47;7.33;;;2.90;;
7791;SDS011;3940;49.892;10.886;2022-07-29T05:22:34;4.20;;;2.60;;
7791;SDS011;3940;49.892;10.886;2022-07-29T05:25:20;5.97;;;3.20;;
7791;SDS011;3940;49.892;10.886;2022-07-29T05:28:09;7.43;;;3.70;;
7791;SDS011;3940;49.892;10.886;2022-07-29T05:30:54;3.63;;;2.47;;
7791;SDS011;3940;49.892;10.886;2022-07-29T05:33:40;3.40;;;3.10;;
7791;SDS011;3940;49.892;10.886;2022-07-29T05:36:25;7.10;;;3.40;;
7791;SDS011;3940;49.892;10.886;2022-07-29T05:39:10;5.17;;;3.10;;
7791;SDS011;3940;49.892;10.886;2022-07-29T05:41:56;19.63;;;3.60;;
7791;SDS011;3940;49.892;10.886;2022-07-29T05:44:40;4.77;;;3.60;;
7791;SDS011;3940;49.892;10.886;2022-07-29T05:47:26;2.90;;;2.70;;
7791;SDS011;3940;49.892;10.886;2022-07-29T05:50:12;4.93;;;2.53;;
7791;SDS011;3940;49.892;10.886;2022-07-29T05:53:21;5.83;;;3.00;;
7791;SDS011;3940;49.892;10.886;2022-07-29T05:56:06;6.87;;;3.87;;
7791;SDS011;3940;49.892;10.886;2022-07-29T05:58:51;5.33;;;3.60;;
7791;SDS011;3940;49.892;10.886;2022-07-29T06:01:37;9.90;;;3.20;;
7791;SDS011;3940;49.892;10.886;2022-07-29T06:04:23;3.27;;;2.83;;
7791;SDS011;3940;49.892;10.886;2022-07-29T06:07:28;6.17;;;3.30;;
7791;SDS011;3940;49.892;10.886;2022-07-29T06:10:17;3.23;;;2.70;;
7791;SDS011;3940;49.892;10.886;2022-07-29T06:13:03;8.83;;;4.17;;
7791;SDS011;3940;49.892;10.886;2022-07-29T06:15:49;6.67;;;3.60;;
7791;SDS011;3940;49.892;10.886;2022-07-29T06:18:35;4.93;;;3.27;;
7791;SDS011;3940;49.892;10.886;2022-07-29T06:21:19;3.67;;;3.20;;
7791;SDS011;3940;49.892;10.886;2022-07-29T06:24:11;4.30;;;2.40;;
7791;SDS011;3940;49.892;10.886;2022-07-29T06:26:59;4.80;;;2.70;;
7791;SDS011;3940;49.892;10.886;2022-07-29T06:29:45;8.33;;;3.47;;
7791;SDS011;3940;49.892;10.886;2022-07-29T06:32:30;20.73;;;3.40;;
7791;SDS011;3940;49.892;10.886;2022-07-29T06:35:15;3.53;;;3.17;;
7791;SDS011;3940;49.892;10.886;2022-07-29T06:38:00;3.33;;;3.03;;
7791;SDS011;3940;49.892;10.886;2022-07-29T06:40:46;6.17;;;3.10;;
7791;SDS011;3940;49.892;10.886;2022-07-29T06:43:46;10.70;;;5.73;;
7791;SDS011;3940;49.892;10.886;2022-07-29T06:46:30;5.83;;;4.47;;
7791;SDS011;3940;49.892;10.886;2022-07-29T06:49:15;6.27;;;3.37;;
7791;SDS011;3940;49.892;10.886;2022-07-29T06:52:00;4.60;;;3.40;;
7791;SDS011;3940;49.892;10.886;2022-07-29T06:54:44;5.80;;;4.03;;
7791;SDS011;3940;49.892;10.886;2022-07-29T06:57:31;9.40;;;3.27;;
7791;SDS011;3940;49.892;10.886;2022-07-29T07:00:16;2.93;;;2.67;;
7791;SDS011;3940;49.892;10.886;2022-07-29T07:03:01;3.50;;;3.13;;
7791;SDS011;3940;49.892;10.886;2022-07-29T07:05:45;3.50;;;2.57;;
7791;SDS011;3940;49.892;10.886;2022-07-29T07:08:31;4.33;;;2.97;;
7791;SDS011;3940;49.892;10.886;2022-07-29T07:11:15;2.67;;;2.47;;
7791;SDS011;3940;49.892;10.886;2022-07-29T07:14:01;5.97;;;2.50;;
7791;SDS011;3940;49.892;10.886;2022-07-29T07:16:47;2.73;;;2.53;;
7791;SDS011;3940;49.892;10.886;2022-07-29T07:19:52;3.17;;;2.47;;
7791;SDS011;3940;49.892;10.886;2022-07-29T07:22:38;5.30;;;2.50;;
7791;SDS011;3940;49.892;10.886;2022-07-29T07:25:26;2.43;;;2.10;;
7791;SDS011;3940;49.892;10.886;2022-07-29T07:28:10;5.03;;;2.90;;
7791;SDS011;3940;49.892;10.886;2022-07-29T07:30:56;4.70;;;3.33;;
7791;SDS011;3940;49.892;10.886;2022-07-29T07:33:41;4.50;;;2.77;;
7791;SDS011;3940;49.892;10.886;2022-07-29T07:36:28;3.07;;;2.87;;
7791;SDS011;3940;49.892;10.886;2022-07-29T07:39:17;6.87;;;2.90;;
7791;SDS011;3940;49.892;10.886;2022-07-29T07:42:07;4.90;;;3.77;;
7791;SDS011;3940;49.892;10.886;2022-07-29T07:44:55;3.63;;;2.83;;
7791;SDS011;3940;49.892;10.886;2022-07-29T07:47:42;4.00;;;3.53;;
7791;SDS011;3940;49.892;10.886;2022-07-29T07:50:31;3.67;;;2.97;;
7791;SDS011;3940;49.892;10.886;2022-07-29T07:53:16;4.90;;;3.10;;
7791;SDS011;3940;49.892;10.886;2022-07-29T07:56:02;6.80;;;3.20;;
7791;SDS011;3940;49.892;10.886;2022-07-29T07:58:47;7.10;;;3.13;;
7791;SDS011;3940;49.892;10.886;2022-07-29T08:01:35;3.40;;;3.20;;
7791;SDS011;3940;49.892;10.886;2022-07-29T08:05:00;4.90;;;3.97;;
7791;SDS011;3940;49.892;10.886;2022-07-29T08:07:45;4.07;;;3.63;;
7791;SDS011;3940;49.892;10.886;2022-07-29T08:10:30;4.73;;;3.20;;
7791;SDS011;3940;49.892;10.886;2022-07-29T08:13:28;2.97;;;2.77;;
7791;SDS011;3940;49.892;10.886;2022-07-29T08:16:15;3.97;;;2.90;;
7791;SDS011;3940;49.892;10.886;2022-07-29T08:19:06;8.37;;;3.00;;
7791;SDS011;3940;49.892;10.886;2022-07-29T08:21:51;6.50;;;3.70;;
7791;SDS011;3940;49.892;10.886;2022-07-29T08:24:36;3.97;;;3.63;;
7791;SDS011;3940;49.892;10.886;2022-07-29T08:27:37;5.60;;;3.77;;
7791;SDS011;3940;49.892;10.886;2022-07-29T08:30:21;6.30;;;3.07;;
7791;SDS011;3940;49.892;10.886;2022-07-29T08:33:07;4.57;;;3.00;;
7791;SDS011;3940;49.892;10.886;2022-07-29T08:35:51;5.90;;;2.90;;
7791;SDS011;3940;49.892;10.886;2022-07-29T08:38:36;4.30;;;2.60;;
7791;SDS011;3940;49.892;10.886;2022-07-29T08:41:22;3.37;;;3.10;;
7791;SDS011;3940;49.892;10.886;2022-07-29T08:44:07;4.30;;;3.43;;
7791;SDS011;3940;49.892;10.886;2022-07-29T08:46:52;3.43;;;2.43;;
7791;SDS011;3940;49.892;10.886;2022-07-29T08:49:39;5.60;;;3.00;;
7791;SDS011;3940;49.892;10.886;2022-07-29T08:52:29;3.43;;;3.13;;
7791;SDS011;3940;49.892;10.886;2022-07-29T08:55:22;5.20;;;3.17;;
7791;SDS011;3940;49.892;10.886;2022-07-29T08:58:07;4.13;;;3.63;;
7791;SDS011;3940;49.892;10.886;2022-07-29T09:00:53;2.97;;;2.77;;
7791;SDS011;3940;49.892;10.886;2022-07-29T09:03:39;4.37;;;3.50;;
7791;SDS011;3940;49.892;10.886;2022-07-29T09:06:25;4.13;;;3.33;;
7791;SDS011;3940;49.892;10.886;2022-07-29T09:09:17;5.07;;;2.93;;
7791;SDS011;3940;49.892;10.886;2022-07-29T09:12:03;7.10;;;3.93;;
7791;SDS011;3940;49.892;10.886;2022-07-29T09:15:13;5.37;;;3.60;;
7791;SDS011;3940;49.892;10.886;2022-07-29T09:17:58;3.90;;;3.60;;
7791;SDS011;3940;49.892;10.886;2022-07-29T09:20:48;5.27;;;3.40;;
7791;SDS011;3940;49.892;10.886;2022-07-29T09:26:50;5.00;;;4.50;;
7791;SDS011;3940;49.892;10.886;2022-07-29T09:29:41;5.30;;;4.17;;
7791;SDS011;3940;49.892;10.886;2022-07-29T09:32:25;4.83;;;3.50;;
7791;SDS011;3940;49.892;10.886;2022-07-29T09:35:18;3.90;;;3.50;;
7791;SDS011;3940;49.892;10.886;2022-07-29T09:38:11;4.20;;;3.80;;
7791;SDS011;3940;49.892;10.886;2022-07-29T09:40:58;5.50;;;4.13;;
7791;SDS011;3940;49.892;10.886;2022-07-29T09:43:53;4.77;;;3.70;;
7791;SDS011;3940;49.892;10.886;2022-07-29T09:46:38;5.03;;;3.97;;
7791;SDS011;3940;49.892;10.886;2022-07-29T09:49:25;3.83;;;3.53;;
7791;SDS011;3940;49.892;10.886;2022-07-29T09:52:09;5.50;;;4.93;;
7791;SDS011;3940;49.892;10.886;2022-07-29T09:57:52;6.10;;;4.00;;
7791;SDS011;3940;49.892;10.886;2022-07-29T10:00:37;5.23;;;4.80;;
7791;SDS011;3940;49.892;10.886;2022-07-29T10:03:26;4.20;;;3.90;;
7791;SDS011;3940;49.892;10.886;2022-07-29T10:06:11;5.07;;;4.67;;
7791;SDS011;3940;49.892;10.886;2022-07-29T10:14:54;4.87;;;4.30;;
7791;SDS011;3940;49.892;10.886;2022-07-29T10:17:39;5.33;;;4.40;;
7791;SDS011;3940;49.892;10.886;2022-07-29T10:20:24;5.33;;;4.83;;
7791;SDS011;3940;49.892;10.886;2022-07-29T10:23:09;4.40;;;4.00;;
7791;SDS011;3940;49.892;10.886;2022-07-29T10:25:54;6.43;;;3.70;;
7791;SDS011;3940;49.892;10.886;2022-07-29T10:28:39;4.10;;;3.80;;
7791;SDS011;3940;49.892;10.886;2022-07-29T10:31:49;4.90;;;4.40;;
7791;SDS011;3940;49.892;10.886;2022-07-29T10:34:52;3.97;;;3.70;;
7791;SDS011;3940;49.892;10.886;2022-07-29T10:44:33;6.20;;;4.27;;
7791;SDS011;3940;49.892;10.886;2022-07-29T10:47:20;4.70;;;3.50;;
7791;SDS011;3940;49.892;10.886;2022-07-29T10:50:07;5.43;;;4.30;;
7791;SDS011;3940;49.892;10.886;2022-07-29T10:52:54;4.33;;;4.00;;
7791;SDS011;3940;49.892;10.886;2022-07-29T10:55:40;4.67;;;3.93;;
7791;SDS011;3940;49.892;10.886;2022-07-29T10:58:28;4.03;;;3.60;;
7791;SDS011;3940;49.892;10.886;2022-07-29T11:04:16;10.40;;;3.90;;
7791;SDS011;3940;49.892;10.886;2022-07-29T11:07:20;3.93;;;3.37;;
7791;SDS011;3940;49.892;10.886;2022-07-29T11:10:26;4.90;;;4.40;;
7791;SDS011;3940;49.892;10.886;2022-07-29T11:13:11;10.23;;;4.50;;
7791;SDS011;3940;49.892;10.886;2022-07-29T11:15:56;6.77;;;3.80;;
7791;SDS011;3940;49.892;10.886;2022-07-29T11:22:03;5.10;;;3.77;;
7791;SDS011;3940;49.892;10.886;2022-07-29T11:25:12;12.13;;;4.50;;
7791;SDS011;3940;49.892;10.886;2022-07-29T11:28:08;5.33;;;3.80;;
7791;SDS011;3940;49.892;10.886;2022-07-29T11:30:56;5.83;;;3.70;;
7791;SDS011;3940;49.892;10.886;2022-07-29T11:33:44;4.13;;;3.80;;
7791;SDS011;3940;49.892;10.886;2022-07-29T11:40:09;4.43;;;4.10;;
7791;SDS011;3940;49.892;10.886;2022-07-29T11:42:57;4.30;;;3.90;;
7791;SDS011;3940;49.892;10.886;2022-07-29T11:45:45;4.43;;;4.03;;
7791;SDS011;3940;49.892;10.886;2022-07-29T11:48:30;6.70;;;4.27;;
7791;SDS011;3940;49.892;10.886;2022-07-29T11:51:15;4.13;;;3.50;;
7791;SDS011;3940;49.892;10.886;2022-07-29T11:53:59;5.27;;;4.77;;
7791;SDS011;3940;49.892;10.886;2022-07-29T11:56:48;4.70;;;3.73;;
7791;SDS011;3940;49.892;10.886;2022-07-29T11:59:42;5.10;;;4.13;;
7791;SDS011;3940;49.892;10.886;2022-07-29T12:02:43;10.80;;;3.78;;
7791;SDS011;3940;49.892;10.886;2022-07-29T12:05:32;6.78;;;3.67;;
7791;SDS011;3940;49.892;10.886;2022-07-29T12:08:22;4.82;;;3.90;;
7791;SDS011;3940;49.892;10.886;2022-07-29T12:11:18;4.65;;;4.05;;
7791;SDS011;3940;49.892;10.886;2022-07-29T12:14:04;6.10;;;4.32;;
7791;SDS011;3940;49.892;10.886;2022-07-29T12:16:54;4.68;;;4.28;;
7791;SDS011;3940;49.892;10.886;2022-07-29T12:19:42;4.47;;;3.70;;
7791;SDS011;3940;49.892;10.886;2022-07-29T12:22:30;4.30;;;4.00;;
7791;SDS011;3940;49.892;10.886;2022-07-29T12:25:17;4.28;;;3.97;;
7791;SDS011;3940;49.892;10.886;2022-07-29T12:28:09;4.43;;;4.00;;
7791;SDS011;3940;49.892;10.886;2022-07-29T12:31:02;5.68;;;4.15;;
7791;SDS011;3940;49.892;10.886;2022-07-29T12:33:52;4.72;;;4.22;;
7791;SDS011;3940;49.892;10.886;2022-07-29T12:36:37;3.80;;;3.50;;
7791;SDS011;3940;49.892;10.886;2022-07-29T12:39:22;5.28;;;3.42;;
7791;SDS011;3940;49.892;10.886;2022-07-29T12:42:11;4.22;;;3.88;;
7791;SDS011;3940;49.892;10.886;2022-07-29T12:44:56;5.90;;;4.13;;
7791;SDS011;3940;49.892;10.886;2022-07-29T12:47:56;3.95;;;3.60;;
7791;SDS011;3940;49.892;10.886;2022-07-29T12:50:57;4.82;;;4.07;;
7791;SDS011;3940;49.892;10.886;2022-07-29T12:54:01;5.28;;;4.00;;
7791;SDS011;3940;49.892;10.886;2022-07-29T12:56:58;4.38;;;3.97;;
7791;SDS011;3940;49.892;10.886;2022-07-29T12:59:43;4.28;;;3.80;;
7791;SDS011;3940;49.892;10.886;2022-07-29T13:02:28;6.85;;;4.63;;
7791;SDS011;3940;49.892;10.886;2022-07-29T13:05:13;4.60;;;4.20;;
7791;SDS011;3940;49.892;10.886;2022-07-29T13:08:09;6.70;;;4.15;;
7791;SDS011;3940;49.892;10.886;2022-07-29T13:10:55;4.50;;;4.13;;
7791;SDS011;3940;49.892;10.886;2022-07-29T13:13:54;4.07;;;3.80;;
7791;SDS011;3940;49.892;10.886;2022-07-29T13:20:04;4.57;;;4.18;;
7791;SDS011;3940;49.892;10.886;2022-07-29T13:22:52;6.80;;;4.07;;
7791;SDS011;3940;49.892;10.886;2022-07-29T13:26:04;4.20;;;3.92;;
7791;SDS011;3940;49.892;10.886;2022-07-29T13:28:52;7.40;;;4.50;;
7791;SDS011;3940;49.892;10.886;2022-07-29T13:31:36;5.40;;;4.90;;
7791;SDS011;3940;49.892;10.886;2022-07-29T13:34:21;4.50;;;4.20;;
7791;SDS011;3940;49.892;10.886;2022-07-29T13:37:08;3.80;;;3.60;;
7791;SDS011;3940;49.892;10.886;2022-07-29T13:39:52;12.18;;;5.00;;
7791;SDS011;3940;49.892;10.886;2022-07-29T13:42:40;5.20;;;4.50;;
7791;SDS011;3940;49.892;10.886;2022-07-29T13:45:24;5.53;;;4.25;;
7791;SDS011;3940;49.892;10.886;2022-07-29T13:48:09;3.58;;;3.38;;
7791;SDS011;3940;49.892;10.886;2022-07-29T13:50:53;4.80;;;4.38;;
7791;SDS011;3940;49.892;10.886;2022-07-29T13:53:38;8.70;;;4.60;;
7791;SDS011;3940;49.892;10.886;2022-07-29T13:56:22;6.13;;;4.57;;
7791;SDS011;3940;49.892;10.886;2022-07-29T13:59:07;5.75;;;5.25;;
7791;SDS011;3940;49.892;10.886;2022-07-29T14:01:51;13.18;;;6.50;;
7791;SDS011;3940;49.892;10.886;2022-07-29T14:04:36;4.20;;;3.80;;
7791;SDS011;3940;49.892;10.886;2022-07-29T14:07:21;5.00;;;4.60;;
7791;SDS011;3940;49.892;10.886;2022-07-29T14:10:06;5.22;;;4.82;;
7791;SDS011;3940;49.892;10.886;2022-07-29T14:12:52;4.50;;;4.10;;
7791;SDS011;3940;49.892;10.886;2022-07-29T14:15:36;5.00;;;4.60;;
7791;SDS011;3940;49.892;10.886;2022-07-29T14:18:21;6.20;;;4.40;;
7791;SDS011;3940;49.892;10.886;2022-07-29T14:21:05;6.17;;;5.57;;
7791;SDS011;3940;49.892;10.886;2022-07-29T14:23:49;5.87;;;5.37;;
7791;SDS011;3940;49.892;10.886;2022-07-29T14:26:36;9.83;;;5.27;;
7791;SDS011;3940;49.892;10.886;2022-07-29T14:29:48;5.63;;;5.03;;
7791;SDS011;3940;49.892;10.886;2022-07-29T14:32:37;10.70;;;5.30;;
7791;SDS011;3940;49.892;10.886;2022-07-29T14:35:23;4.60;;;4.20;;
7791;SDS011;3940;49.892;10.886;2022-07-29T14:38:09;5.20;;;4.70;;
7791;SDS011;3940;49.892;10.886;2022-07-29T14:40:53;8.10;;;5.03;;
7791;SDS011;3940;49.892;10.886;2022-07-29T14:43:39;6.30;;;5.10;;
7791;SDS011;3940;49.892;10.886;2022-07-29T14:46:24;4.70;;;4.30;;
7791;SDS011;3940;49.892;10.886;2022-07-29T14:49:08;5.00;;;4.53;;
7791;SDS011;3940;49.892;10.886;2022-07-29T14:51:55;5.00;;;4.60;;
7791;SDS011;3940;49.892;10.886;2022-07-29T14:54:39;5.47;;;5.07;;
7791;SDS011;3940;49.892;10.886;2022-07-29T14:57:25;4.83;;;4.50;;
7791;SDS011;3940;49.892;10.886;2022-07-29T15:00:09;4.90;;;4.33;;
7791;SDS011;3940;49.892;10.886;2022-07-29T15:02:55;4.70;;;4.30;;
7791;SDS011;3940;49.892;10.886;2022-07-29T15:05:39;8.73;;;4.50;;
7791;SDS011;3940;49.892;10.886;2022-07-29T15:08:24;4.63;;;4.23;;
7791;SDS011;3940;49.892;10.886;2022-07-29T15:11:14;10.80;;;4.17;;
7791;SDS011;3940;49.892;10.886;2022-07-29T15:14:00;4.70;;;3.80;;
7791;SDS011;3940;49.892;10.886;2022-07-29T15:16:44;13.60;;;3.40;;
7791;SDS011;3940;49.892;10.886;2022-07-29T15:19:29;4.00;;;3.70;;
7791;SDS011;3940;49.892;10.886;2022-07-29T15:22:13;5.20;;;3.60;;
7791;SDS011;3940;49.892;10.886;2022-07-29T15:24:57;7.03;;;3.87;;
7791;SDS011;3940;49.892;10.886;2022-07-29T15:27:41;3.90;;;3.50;;
7791;SDS011;3940;49.892;10.886;2022-07-29T15:30:27;3.00;;;2.80;;
7791;SDS011;3940;49.892;10.886;2022-07-29T15:33:11;6.13;;;3.67;;
7791;SDS011;3940;49.892;10.886;2022-07-29T15:35:56;4.37;;;3.97;;
7791;SDS011;3940;49.892;10.886;2022-07-29T15:38:41;4.93;;;4.33;;
7791;SDS011;3940;49.892;10.886;2022-07-29T15:41:27;4.13;;;3.73;;
7791;SDS011;3940;49.892;10.886;2022-07-29T15:44:13;3.63;;;3.33;;
7791;SDS011;3940;49.892;10.886;2022-07-29T15:46:57;4.60;;;4.27;;
7791;SDS011;3940;49.892;10.886;2022-07-29T15:49:49;5.37;;;3.90;;
7791;SDS011;3940;49.892;10.886;2022-07-29T15:52:34;6.00;;;4.67;;
7791;SDS011;3940;49.892;10.886;2022-07-29T15:55:21;8.03;;;5.10;;
7791;SDS011;3940;49.892;10.886;2022-07-29T15:58:08;8.40;;;6.23;;
7791;SDS011;3940;49.892;10.886;2022-07-29T16:00:53;8.30;;;5.80;;
7791;SDS011;3940;49.892;10.886;2022-07-29T16:03:40;9.83;;;6.63;;
7791;SDS011;3940;49.892;10.886;2022-07-29T16:06:25;8.90;;;5.27;;
7791;SDS011;3940;49.892;10.886;2022-07-29T16:09:09;5.47;;;4.77;;
7791;SDS011;3940;49.892;10.886;2022-07-29T16:11:54;7.83;;;5.97;;
7791;SDS011;3940;49.892;10.886;2022-07-29T16:14:40;7.23;;;5.40;;
7791;SDS011;3940;49.892;10.886;2022-07-29T16:17:25;9.43;;;4.90;;
7791;SDS011;3940;49.892;10.886;2022-07-29T16:20:10;5.50;;;5.00;;
7791;SDS011;3940;49.892;10.886;2022-07-29T16:22:55;5.60;;;5.10;;
7791;SDS011;3940;49.892;10.886;2022-07-29T16:25:42;5.50;;;5.10;;
7791;SDS011;3940;49.892;10.886;2022-07-29T16:28:27;4.53;;;4.10;;
7791;SDS011;3940;49.892;10.886;2022-07-29T16:31:16;11.53;;;4.40;;
7791;SDS011;3940;49.892;10.886;2022-07-29T16:34:05;5.77;;;5.17;;
7791;SDS011;3940;49.892;10.886;2022-07-29T16:36:52;6.00;;;5.50;;
7791;SDS011;3940;49.892;10.886;2022-07-29T16:39:37;6.17;;;5.57;;
7791;SDS011;3940;49.892;10.886;2022-07-29T16:42:27;5.63;;;5.23;;
7791;SDS011;3940;49.892;10.886;2022-07-29T16:45:15;5.97;;;5.23;;
7791;SDS011;3940;49.892;10.886;2022-07-29T16:48:00;6.43;;;4.77;;
7791;SDS011;3940;49.892;10.886;2022-07-29T16:50:50;6.30;;;4.87;;
7791;SDS011;3940;49.892;10.886;2022-07-29T16:53:39;5.80;;;5.30;;
7791;SDS011;3940;49.892;10.886;2022-07-29T16:56:28;7.67;;;4.87;;
7791;SDS011;3940;49.892;10.886;2022-07-29T16:59:13;6.23;;;5.57;;
7791;SDS011;3940;49.892;10.886;2022-07-29T17:01:58;6.10;;;5.50;;
7791;SDS011;3940;49.892;10.886;2022-07-29T17:04:45;8.13;;;6.60;;
7791;SDS011;3940;49.892;10.886;2022-07-29T17:07:29;7.17;;;5.70;;
7791;SDS011;3940;49.892;10.886;2022-07-29T17:10:16;13.10;;;6.53;;
7791;SDS011;3940;49.892;10.886;2022-07-29T17:13:01;9.87;;;6.10;;
7791;SDS011;3940;49.892;10.886;2022-07-29T17:15:48;10.10;;;6.90;;
7791;SDS011;3940;49.892;10.886;2022-07-29T17:18:33;10.60;;;7.37;;
7791;SDS011;3940;49.892;10.886;2022-07-29T17:21:24;8.77;;;7.90;;
7791;SDS011;3940;49.892;10.886;2022-07-29T17:24:11;11.40;;;7.43;;
7791;SDS011;3940;49.892;10.886;2022-07-29T17:27:18;5.63;;;5.13;;
7791;SDS011;3940;49.892;10.886;2022-07-29T17:30:03;9.60;;;7.07;;
7791;SDS011;3940;49.892;10.886;2022-07-29T17:32:49;10.07;;;5.70;;
7791;SDS011;3940;49.892;10.886;2022-07-29T17:35:33;11.87;;;6.67;;
7791;SDS011;3940;49.892;10.886;2022-07-29T17:38:29;7.60;;;4.97;;
7791;SDS011;3940;49.892;10.886;2022-07-29T17:41:14;9.30;;;4.80;;
7791;SDS011;3940;49.892;10.886;2022-07-29T17:44:00;5.70;;;4.47;;
7791;SDS011;3940;49.892;10.886;2022-07-29T17:46:46;5.70;;;4.90;;